EKYT

Aalborg Airport

Aalborg, Denmark
METAR EKYT 160950Z AUTO 14013KT 9999 SCT041/// OVC055/// 02/M01 Q1017 08190184
Observed Flight Rules
Dec-16 @ 09:50 UTC (37 minutes ago) Visual Flight Rules
Wind Visibility Clouds
140° at 13 knots 10,000+ meters
  • Scattered at 4,100' AGL
  • Overcast at 5,500' AGL
Temperatures Readings
Current 2°C / 36°F
Dewpoint -1°C / 30°F
Humidity 81%
Altimeter 30.03" Hg
Pressure 1017 hPa
Elevation 3
METAR EKYT 160950Z AUTO 14013KT 9999 SCT041/// OVC055/// 02/M01 Q1017 08190184
Observed Flight Rules
Dec-16 @ 09:50 UTC
(37 minutes ago)
VFR
Wind Visibility
140° at 13 knots 10,000+ meters
Clouds
  • Scattered at 4,100' AGL
  • Overcast at 5,500' AGL
Temperature Dewpoint
2°C / 36°F -1°C / 30°F
Humidity Altimeter Pressure
81% 30.03" Hg 1017 hPa